Metar GG30 METAR message from awiacja.imgw.pl Metar G30 EPZG METAR EPZG 240530Z 10006KT 070V140 0900 R24/2000N FG BKN004 OVC006 13/13 Q1013 =